May 23, 2022

Time Code Weather Temp. Visibility Clouds Wind METAR/SPECI
11:00 am
V
54 °F 45 mi 25,000 ft Var   Var 2 kt METAR CYMX 231500Z VRB02KT 45SM SCT040 SCT150 BKN250 12/02 A3033 RMK SC3AC1CI4 AC TR SLP273
10:00 am
V
52 °F 45 mi - 090°   090° 4 kt METAR CYMX 231400Z 09004KT 040V130 45SM FEW040 FEW150 SCT250 11/01 A3033 RMK SC1AC1CI2 SC TR SLP274
9:00 am
V
50 °F 45 mi - 030°   030° 3 kt METAR CYMX 231300Z 03003KT 330V100 45SM FEW030 FEW150 SCT250 10/02 A3033 RMK CU1AC1CI2 CU TR SLP276
8:00 am
V
48 °F 45 mi - 040°   040° 3 kt METAR CYMX 231200Z 04003KT 010V110 45SM FEW150 SCT250 09/02 A3032 RMK AC2CI1 CONTRAILS SLP272
7:00 am
V
45 °F 45 mi - 010°   010° 4 kt METAR CYMX 231100Z 01004KT 340V050 45SM FEW150 FEW250 07/02 A3030 RMK AC1CI2 AC TR SLP265
6:00 am
V
41 °F 40 mi - Var   Var 2 kt METAR CYMX 231000Z VRB02KT 40SM FEW150 FEW230 05/03 A3029 RMK AC1CI1 AC TR CI TR SLP261
5:00 am
V
43 °F 40 mi - Var   Var 2 kt METAR CYMX 230900Z VRB02KT 40SM FEW250 06/01 A3025 RMK CI1 SLP249
4:00 am
V
45 °F 25 mi - 060°   060° 2 kt METAR CYMX 230800Z 06002KT 25SM FEW150 07/02 A3023 RMK AC2 SLP241
3:00 am
V
46 °F 25 mi - 350°   350° 6 kt METAR CYMX 230700Z 35006KT 25SM SCT035 SCT240 08/03 A3023 RMK SC3CI1 CI TR SLP240
2:00 am
V
50 °F 25 mi 3,200 ft 360°   360° 8 kt METAR CYMX 230600Z 36008KT 25SM BKN032 10/03 A3021 RMK SC7 SLP233
1:00 am
V
52 °F 25 mi 3,100 ft 350°   350° 7 kt METAR CYMX 230500Z 35007KT 25SM BKN031 11/06 A3019 RMK SC7 SLP228
12:00 am
V
52 °F 25 mi 3,500 ft 320°   320° 2 kt METAR CYMX 230400Z 32002KT 25SM BKN035 11/07 A3017 RMK SC7 SLP221

May 22, 2022

Time Code Weather Temp. Visibility Clouds Wind METAR/SPECI
11:00 pm
V
52 °F 25 mi - 300°   300° 3 kt METAR CYMX 230300Z 30003KT 230V340 25SM SCT040 11/07 A3015 RMK SC3 SLP214
10:00 pm
V
54 °F 25 mi 14,000 ft 290°   290° 5 kt METAR CYMX 230200Z 29005KT 250V340 25SM SCT035 BKN140 12/07 A3012 RMK SC4AC1 SLP202
9:00 pm
V
54 °F 25 mi - 320°   320° 8 kt METAR CYMX 230100Z 32008KT 25SM FEW015 SCT160 SCT230 12/07 A3009 RMK CF1AC3CI1 CI TR SLP192
8:00 pm
V
55 °F 25 mi 15,000 ft 310°   310° 7 kt METAR CYMX 230000Z 31007KT 25SM FEW013 SCT040 BKN150 BKN220 13/09 A3004 RMK CF1SC1AC4CI1 SLP177
7:00 pm
V
57 °F 30 mi 3,600 ft 260°   260° 6 21 kt METAR CYMX 222300Z 26006G21KT 220V320 30SM FEW008 SCT013 BKN036 OVC120 14/13 A3000 RMK SF1CU3SC2AS2 SLP163
6:42 pm
M
57 °F 25 mi 1,400 ft 250°   250° 5 kt METAR CYMX 222242Z 25005KT 200V290 25SM -SHRA SCT008 BKN014 OVC120 14/13 A2999 RMK CF4CU2AS2 SLP158
6:27 pm
I
57 °F 30 mi 800 ft 240°   240° 7 kt METAR CYMX 222227Z 24007KT 200V280 30SM BKN008 OVC120 14/13 A2998 RMK SF6AS2 PRESRR SLP157
6:00 pm
V
57 °F 15 mi 10,000 ft 240°   240° 5 kt METAR CYMX 222200Z 24005KT 200V280 15SM SCT006 OVC100 14/13 A2996 RMK SF3AC5 PRESRR SLP148 DENSITY ALT 300FT
5:00 pm
V
57 °F 15 mi 4,600 ft 220°   220° 5 kt METAR CYMX 222100Z 22005KT 15SM OVC046 14/13 A2992 RMK SC8 SLP136 DENSITY ALT 300FT
4:00 pm
V
59 °F 15 mi 3,200 ft 310°   310° 6 kt METAR CYMX 222000Z 31006KT 250V350 15SM -RA OVC032 15/12 A2992 RMK SC8 SLP134 DENSITY ALT 300FT
3:00 pm
V
64 °F 30 mi 4,700 ft 320°   320° 14 20 kt METAR CYMX 221900Z 32014G20KT 280V340 30SM FEW029 OVC047 18/12 A2989 RMK SC2SC6 SLP123 DENSITY ALT 700FT
2:00 pm
V
72 °F 30 mi 4,600 ft 250°   250° 4 kt METAR CYMX 221800Z 25004KT 210V300 30SM BKN046 OVC130 22/17 A2985 RMK SC7AC1 SLP109 DENSITY ALT 1300FT
1:00 pm
V
73 °F 30 mi 13,000 ft 250°   250° 7 kt METAR CYMX 221700Z 25007KT 220V290 30SM FEW030 BKN130 23/17 A2985 RMK CU1AC6 SLP111 DENSITY ALT 1400FT
12:00 pm
V
72 °F 30 mi 12,000 ft 260°   260° 5 kt METAR CYMX 221600Z 26005KT 210V280 30SM FEW025 BKN120 22/16 A2987 RMK CF1AC7 CF TR SLP117 DENSITY ALT 1300FT
11:00 am
V
72 °F 30 mi 25,000 ft 240°   240° 6 kt METAR CYMX 221500Z 24006KT 190V260 30SM FEW030 SCT120 BKN250 22/15 A2989 RMK CF1AC2CI3 SLP125 DENSITY ALT 1200FT
10:00 am
V
70 °F 30 mi 25,000 ft 230°   230° 6 kt METAR CYMX 221400Z 23006KT 200V300 30SM FEW025 SCT120 BKN250 21/16 A2991 RMK CF1AC2CI2 SLP130 DENSITY ALT 1100FT
9:00 am
V
66 °F 30 mi 9,700 ft 230°   230° 6 kt METAR CYMX 221300Z 23006KT 190V260 30SM FEW012 BKN097 BKN250 19/17 A2993 RMK CF2AC3CI1 SLP137 DENSITY ALT 900FT
8:00 am
V
64 °F 15 mi 25,000 ft 230°   230° 3 kt METAR CYMX 221200Z 23003KT 160V280 15SM FEW007 SCT110 BKN250 18/17 A2991 RMK SF1AC2CI2 SLP132 DENSITY ALT 700FT
7:00 am
V
63 °F 15 mi 11,000 ft 250°   250° 3 kt METAR CYMX 221100Z 25003KT 200V300 15SM SCT034 BKN110 17/17 A2993 RMK SC3AC4 SLP137 DENSITY ALT 600FT
6:00 am
V
61 °F 15 mi 13,000 ft 190°   190° 2 kt METAR CYMX 221000Z 19002KT 15SM FEW020 BKN130 BKN210 16/16 A2990 RMK SC1AC5CI1 SLP127 DENSITY ALT 500FT
5:00 am
V
63 °F 15 mi 10,000 ft 220°   220° 5 kt METAR CYMX 220900Z 22005KT 15SM BCFG FEW002 BKN100 BKN220 17/17 A2993 RMK SF1AC4CI2 SLP139 DENSITY ALT 600FT
4:00 am
V
63 °F 10 mi 17,000 ft 180°   180° 3 kt METAR CYMX 220800Z 18003KT 10SM BCFG FEW002 BKN170 17/17 A2992 RMK SF2AS5 PRESRR SLP132 DENSITY ALT 600FT
3:50 am
V
63 °F 10 mi 16,000 ft Var   Var 4 kt METAR CYMX 220750Z VRB04KT 10SM R24/3000VP6000FT/U BCFG FEW002 BKN160 BKN220 17/17 A2990 RMK SF1AS4CI2 PRESRR SLP127 DENSITY ALT 600FT
3:31 am
L
63 °F 3 mi 200 ft 360°   360° 3 kt METAR CYMX 220731Z 36003KT 220V360 3SM BR BKN002 BKN150 17/16 A2989 RMK SF6AC1 TWR VIS 1 PRESFR SLP122 DENSITY ALT 600FT
3:13 am
L
63 °F 1 mi 200 ft Var   Var 2 kt METAR CYMX 220713Z VRB02KT 1SM R24/P6000FT/N BR BKN002 BKN150 17/17 A2992 RMK SF5AC1 VIS 3 S SLP133 DENSITY ALT 600FT
3:00 am
L
63 °F 10 mi 300 ft Var   000° 0 kt METAR CYMX 220700Z 00000KT 10SM BKN003 BKN150 17/17 A2991 RMK SF5AC2 VIS 3 N SLP130 DENSITY ALT 600FT
2:51 am
V
63 °F 20 mi 16,000 ft Var   Var 2 kt METAR CYMX 220651Z VRB02KT 20SM FEW003 SCT013 OVC160 17/17 A2991 RMK ST1SC2AS5 SLP131 DENSITY ALT 600FT
2:00 am
V
63 °F 20 mi 23,000 ft 220°   220° 4 kt METAR CYMX 220600Z 22004KT 190V250 20SM SCT013 OVC230 17/17 A2996 RMK SF3CI5 SLP147 DENSITY ALT 600FT
1:00 am
V
63 °F 25 mi - Var   Var 2 kt METAR CYMX 220500Z VRB02KT 25SM R24/3500VP6000FT/D FEW025 SCT240 17/16 A2995 RMK SC1CI2 SLP144 DENSITY ALT 500FT
12:00 am
V
63 °F 25 mi - 220°   220° 3 kt METAR CYMX 220400Z 22003KT 25SM SKC 17/17 A2995 RMK PRESRR SLP144 DENSITY ALT 600FT

May 21, 2022

Time Code Weather Temp. Visibility Clouds Wind METAR/SPECI
11:00 pm
V
63 °F 25 mi - 270°   270° 4 kt METAR CYMX 220300Z 27004KT 240V300 25SM SKC 17/17 A2993 RMK SLP137 DENSITY ALT 600FT
10:00 pm
V
64 °F 25 mi - 280°   280° 4 kt METAR CYMX 220200Z 28004KT 250V330 25SM FEW130 SCT140 18/17 A2993 RMK AC1CI2 PRESRR SLP137 DENSITY ALT 700FT
9:00 pm
V
64 °F 25 mi - 240°   240° 5 kt METAR CYMX 220100Z 24005KT 220V290 25SM FEW130 SCT240 18/17 A2989 RMK AC2CI1 PRESRR SLP125 DENSITY ALT 800FT
8:00 pm
V
66 °F 25 mi 18,000 ft 260°   260° 5 kt METAR CYMX 220000Z 26005KT 230V290 25SM FEW015 FEW060 BKN180 BKN220 19/17 A2988 RMK CF1SC1AS5CI1 CF TR SLP119 DENSITY ALT 900FT
7:00 pm
V
66 °F 25 mi 16,000 ft 260°   260° 7 15 kt METAR CYMX 212300Z 26007G15KT 210V300 25SM FEW015 FEW060 BKN160 19/17 A2987 RMK CF1SC1AS6 CF TR SLP118 DENSITY ALT 900FT
6:16 pm
V
66 °F 25 mi 16,000 ft 230°   230° 5 kt METAR CYMX 212216Z 23005KT 190V290 25SM VCSH FEW015 FEW060 BKN160 19/17 A2986 RMK CF1CU2AS5 CF TR DIST CB E SLP116 DENSITY ALT 900FT
6:00 pm
V
66 °F 20 mi 14,000 ft 240°   240° 5 kt METAR CYMX 212200Z 24005KT 220V320 20SM TS SCT060CB BKN140 OVC250 19/17 A2986 RMK CB3AC2CI3 SLP113 DENSITY ALT 900FT
5:00 pm
V
73 °F 15 mi 6,800 ft 280°   280° 19 42 kt METAR CYMX 212100Z 28019G42KT 190V310 15SM TSRA SCT061CB OVC068 23/17 A2989 RMK CB3AC5 PRESRR SLP124 DENSITY ALT 1300FT
4:00 pm
V
84 °F 15 mi 9,000 ft 210°   210° 14 21 kt METAR CYMX 212000Z 21014G21KT 15SM FEW053CB BKN090 BKN250 29/18 A2979 RMK CB2AC3CI2 CB N AND S QUD MOVG E SLP088 DENSITY ALT 2100FT
3:00 pm
V
86 °F 15 mi 25,000 ft 260°   260° 10 17 kt METAR CYMX 211900Z 26010G17KT 210V280 15SM SCT060 SCT090 BKN250 30/20 A2979 RMK CU3AC1CI1 SLP089 DENSITY ALT 2300FT
2:00 pm
V
86 °F 15 mi 9,000 ft 230°   230° 7 kt METAR CYMX 211800Z 23007KT 190V260 15SM FEW040 BKN090 BKN250 30/20 A2980 RMK CU1AC4CI1 SLP091 DENSITY ALT 2200FT
1:00 pm
V
84 °F 15 mi 25,000 ft 240°   240° 7 16 kt METAR CYMX 211700Z 24007G16KT 170V310 15SM FEW035 SCT120 BKN250 29/20 A2979 RMK CU1AC3CI3 SLP090 DENSITY ALT 2100FT
12:00 pm
V
82 °F 15 mi 25,000 ft 190°   190° 9 kt METAR CYMX 211600Z 19009KT 160V230 15SM FEW038 SCT110 BKN250 28/21 A2979 RMK CU2AC2CI2 SLP088 DENSITY ALT 2100FT
11:00 am
V
81 °F 15 mi 25,000 ft 230°   230° 6 kt METAR CYMX 211500Z 23006KT 180V270 15SM FEW028 FEW110 BKN250 27/21 A2979 RMK CF1AC1CI5 CF TR SLP090 DENSITY ALT 1900FT
Older data

Download our app

Easy access to all aviation weather on your mobile phone and tablet.
With many features not available on the website, like offline support and a personal airport list.

We and third parties follow your internet behavior on our website with cookies. If you continue, we assume you agree with our cookie policy. Learn more